Time;durP1;ratioP1;P1;durP2;ratioP2;P2;SDS_P1;SDS_P2;PMS_P1;PMS_P2;Temp;Humidity;BMP_temperature;BMP_pressure;BME280_temperature;BME280_humidity;BME280_pressure;Samples;Min_cycle;Max_cycle;Signal;HPM_P1;HPM_P2
2024/01/28 00:01:41;;;;;;;9.93;3.73;;;;;;;-0.68;100.00;103027.00;5017810;28;20207;-73
2024/01/28 00:04:08;;;;;;;9.67;3.73;;;;;;;-0.67;100.00;103015.63;5021032;28;20212;-72
2024/01/28 00:06:35;;;;;;;10.93;3.47;;;;;;;-0.69;100.00;103021.22;5024678;28;20209;-73
2024/01/28 00:09:03;;;;;;;9.93;3.43;;;;;;;-0.71;100.00;103022.19;5023530;28;20201;-73
2024/01/28 00:11:30;;;;;;;16.47;3.93;;;;;;;-0.69;100.00;103018.63;5018822;28;20215;-73
2024/01/28 00:13:56;;;;;;;11.40;3.77;;;;;;;-0.75;100.00;103012.38;5021836;28;20204;-73
2024/01/28 00:16:23;;;;;;;10.00;4.17;;;;;;;-0.77;100.00;103006.59;5019366;28;20220;-73
2024/01/28 00:18:50;;;;;;;11.30;3.50;;;;;;;-0.78;100.00;103010.16;5021189;28;20227;-73
2024/01/28 00:21:16;;;;;;;9.37;3.27;;;;;;;-0.79;100.00;103015.56;5017395;28;20197;-73
2024/01/28 00:23:43;;;;;;;11.17;3.60;;;;;;;-0.82;100.00;103014.94;5019075;28;20208;-73
2024/01/28 00:26:10;;;;;;;13.57;4.43;;;;;;;-0.84;100.00;103015.34;5025721;28;20219;-73
2024/01/28 00:28:37;;;;;;;13.00;4.43;;;;;;;-0.83;100.00;103006.56;5018258;28;20197;-73
2024/01/28 00:31:08;;;;;;;7.83;3.63;;;;;;;-0.86;100.00;103005.94;5019952;28;20215;-73
2024/01/28 00:33:35;;;;;;;13.10;3.67;;;;;;;-0.87;100.00;103001.75;5014494;28;20196;-73
2024/01/28 00:36:01;;;;;;;15.13;4.70;;;;;;;-0.87;100.00;103013.94;5027108;28;20631;-73
2024/01/28 00:38:31;;;;;;;15.23;5.30;;;;;;;-0.87;100.00;103012.13;5007251;28;20201;-73
2024/01/28 00:40:58;;;;;;;11.70;4.10;;;;;;;-0.92;100.00;103011.09;5009413;28;20204;-73
2024/01/28 00:43:25;;;;;;;11.93;5.40;;;;;;;-0.93;100.00;103009.50;5009076;28;20259;-73
2024/01/28 00:45:52;;;;;;;24.67;7.27;;;;;;;-0.95;100.00;103014.06;5011792;28;20208;-72
2024/01/28 00:48:18;;;;;;;23.20;7.00;;;;;;;-0.95;100.00;103008.88;5008429;28;20201;-73
2024/01/28 00:50:45;;;;;;;15.17;6.30;;;;;;;-0.98;100.00;103010.06;5008956;28;20201;-73
2024/01/28 00:53:12;;;;;;;14.27;5.23;;;;;;;-0.99;100.00;103012.06;5008560;28;20379;-73
2024/01/28 00:55:39;;;;;;;9.13;4.57;;;;;;;-0.98;100.00;103018.84;5022338;28;20219;-73
2024/01/28 00:58:05;;;;;;;12.77;4.50;;;;;;;-1.02;100.00;103011.41;5009229;28;20200;-73
2024/01/28 01:00:34;;;;;;;12.80;4.50;;;;;;;-1.02;100.00;103012.41;5008132;28;20212;-73
2024/01/28 01:03:00;;;;;;;13.63;5.33;;;;;;;-1.02;100.00;103022.78;5009335;28;20224;-73
2024/01/28 01:05:27;;;;;;;11.67;5.03;;;;;;;-1.03;100.00;103014.22;5011274;28;20295;-73
2024/01/28 01:07:54;;;;;;;12.10;4.87;;;;;;;-1.05;100.00;103015.41;5025823;28;20195;-73
2024/01/28 01:10:25;;;;;;;15.67;5.17;;;;;;;-1.05;100.00;103015.41;5008829;28;20197;-73
2024/01/28 01:12:51;;;;;;;22.20;5.60;;;;;;;-1.03;100.00;103014.22;5006532;28;20200;-73
2024/01/28 01:15:18;;;;;;;10.90;4.67;;;;;;;-1.10;100.00;103022.94;5008457;28;20217;-73
2024/01/28 01:17:49;;;;;;;18.60;5.20;;;;;;;-1.11;100.00;103022.13;5008819;28;20203;-73
2024/01/28 01:20:17;;;;;;;15.07;5.57;;;;;;;-1.12;100.00;103023.13;5026508;28;20343;-73
2024/01/28 01:22:44;;;;;;;12.13;4.50;;;;;;;-1.17;100.00;103028.84;5008507;28;20209;-73
2024/01/28 01:25:13;;;;;;;19.80;6.20;;;;;;;-1.20;100.00;103018.06;5009983;28;20259;-73
2024/01/28 01:27:40;;;;;;;15.67;5.63;;;;;;;-1.20;100.00;103018.06;5008894;28;20275;-73
2024/01/28 01:30:08;;;;;;;10.13;5.57;;;;;;;-1.20;100.00;103009.53;5007341;28;20688;-73
2024/01/28 01:32:38;;;;;;;12.53;5.20;;;;;;;-1.22;100.00;103014.88;5010736;28;20200;-73
2024/01/28 01:35:09;;;;;;;12.40;4.80;;;;;;;-1.21;100.00;103024.25;5008252;28;20232;-73
2024/01/28 01:37:36;;;;;;;11.90;4.80;;;;;;;-1.22;100.00;103014.88;5006932;28;20299;-73
2024/01/28 01:40:04;;;;;;;16.03;4.57;;;;;;;-1.25;100.00;103017.06;5003013;28;20256;-73
2024/01/28 01:42:31;;;;;;;16.60;4.63;;;;;;;-1.23;100.00;103015.06;5010051;28;20271;-73
2024/01/28 01:44:58;;;;;;;11.57;4.47;;;;;;;-1.27;100.00;103016.44;5006738;28;20212;-73
2024/01/28 01:47:25;;;;;;;9.23;4.07;;;;;;;-1.30;100.00;103025.38;5011354;28;20537;-73
2024/01/28 01:49:52;;;;;;;17.43;4.33;;;;;;;-1.34;100.00;103021.56;5025082;28;20224;-73
2024/01/28 01:52:21;;;;;;;13.53;4.10;;;;;;;-1.36;100.00;103023.53;5009042;28;20204;-73
2024/01/28 01:54:48;;;;;;;10.73;4.10;;;;;;;-1.36;100.00;103026.13;5010164;28;20186;-73
2024/01/28 01:57:16;;;;;;;12.40;3.80;;;;;;;-1.38;100.00;103014.34;5025125;28;20486;-73
2024/01/28 01:59:43;;;;;;;7.13;3.90;;;;;;;-1.39;100.00;103020.53;5016373;28;20202;-73
2024/01/28 02:02:10;;;;;;;12.57;4.10;;;;;;;-1.40;100.00;103021.53;5016686;28;20272;-73
2024/01/28 02:04:38;;;;;;;16.33;4.43;;;;;;;-1.39;100.00;103033.47;5015156;28;20262;-73
2024/01/28 02:07:06;;;;;;;11.03;4.73;;;;;;;-1.43;100.00;103020.09;5013983;28;20199;-73
2024/01/28 02:09:35;;;;;;;13.23;4.00;;;;;;;-1.44;100.00;103022.88;5017239;28;20196;-73
2024/01/28 02:12:01;;;;;;;12.03;3.90;;;;;;;-1.47;100.00;103016.28;5013150;28;20518;-73
2024/01/28 02:14:29;;;;;;;7.63;3.73;;;;;;;-1.48;100.00;103023.22;5030659;28;20200;-73
2024/01/28 02:16:55;;;;;;;8.90;4.50;;;;;;;-1.46;100.00;103022.28;5015226;28;20502;-73
2024/01/28 02:19:22;;;;;;;13.43;4.23;;;;;;;-1.47;100.00;103016.28;5026611;28;20213;-73
2024/01/28 02:21:49;;;;;;;8.63;3.93;;;;;;;-1.46;100.00;103022.28;5014441;28;20199;-74
2024/01/28 02:24:17;;;;;;;10.50;5.10;;;;;;;-1.48;100.00;103021.63;5013706;28;20828;-74
2024/01/28 02:26:44;;;;;;;8.07;4.13;;;;;;;-1.51;100.00;103022.03;5016993;28;20221;-74
2024/01/28 02:29:10;;;;;;;11.87;3.83;;;;;;;-1.50;100.00;103026.22;5018714;28;20199;-73
2024/01/28 02:31:37;;;;;;;12.90;4.60;;;;;;;-1.52;100.00;103028.97;5016389;28;20200;-74
2024/01/28 02:34:04;;;;;;;17.17;5.07;;;;;;;-1.53;100.00;103017.03;5010604;28;20632;-74
2024/01/28 02:36:30;;;;;;;13.13;4.43;;;;;;;-1.55;100.00;103019.00;5012575;28;20471;-74
2024/01/28 02:38:58;;;;;;;15.30;4.83;;;;;;;-1.55;100.00;103028.56;5011981;28;20193;-74
2024/01/28 02:41:26;;;;;;;18.40;4.70;;;;;;;-1.56;100.00;103034.72;5015034;28;20516;-74
2024/01/28 02:43:54;;;;;;;12.10;5.07;;;;;;;-1.57;100.00;103039.09;5011545;28;20216;-73
2024/01/28 02:46:21;;;;;;;12.87;4.93;;;;;;;-1.55;100.00;103029.38;5012416;28;20778;-74
2024/01/28 02:48:49;;;;;;;13.63;4.80;;;;;;;-1.55;100.00;103037.16;5027739;28;20463;-74
2024/01/28 02:51:16;;;;;;;16.40;5.67;;;;;;;-1.56;100.00;103042.50;5010780;28;20231;-74
2024/01/28 02:53:42;;;;;;;16.07;5.43;;;;;;;-1.57;100.00;103036.50;5016810;28;20459;-74
2024/01/28 02:56:09;;;;;;;17.73;5.33;;;;;;;-1.55;100.00;103038.91;5004037;28;20653;-74
2024/01/28 02:58:37;;;;;;;9.30;4.60;;;;;;;-1.55;100.00;103039.75;5029946;28;20675;-74
2024/01/28 03:01:04;;;;;;;16.93;5.70;;;;;;;-1.56;100.00;103035.50;5009173;28;20471;-74
2024/01/28 03:03:30;;;;;;;14.03;5.23;;;;;;;-1.57;100.00;103035.72;5011114;28;20231;-74
2024/01/28 03:05:57;;;;;;;18.77;6.03;;;;;;;-1.55;100.00;103038.91;5010980;28;20804;-73
2024/01/28 03:08:23;;;;;;;12.60;5.47;;;;;;;-1.57;100.00;103041.69;5014763;28;20947;-74
2024/01/28 03:10:50;;;;;;;19.60;5.80;;;;;;;-1.54;100.00;103043.13;5012604;28;20862;-74
2024/01/28 03:13:17;;;;;;;14.13;5.00;;;;;;;-1.50;100.00;103033.97;5010703;28;20490;-74
2024/01/28 03:15:45;;;;;;;16.33;5.90;;;;;;;-1.55;100.00;103037.16;5013032;28;20985;-74
2024/01/28 03:18:12;;;;;;;13.63;5.83;;;;;;;-1.54;100.00;103041.34;5013576;28;20490;-75
2024/01/28 03:20:38;;;;;;;14.83;6.20;;;;;;;-1.56;100.00;103038.09;5009846;28;20208;-74
2024/01/28 03:23:05;;;;;;;11.87;5.87;;;;;;;-1.53;100.00;103047.28;5011670;28;21037;-74
2024/01/28 03:25:31;;;;;;;18.00;6.30;;;;;;;-1.53;100.00;103047.28;5017327;28;20459;-74
2024/01/28 03:27:58;;;;;;;12.77;6.13;;;;;;;-1.55;100.00;103039.75;5010372;28;20463;-74
2024/01/28 03:30:25;;;;;;;11.83;5.60;;;;;;;-1.58;100.00;103034.09;5003525;28;20483;-74
2024/01/28 03:32:52;;;;;;;10.80;6.20;;;;;;;-1.59;100.00;103035.91;5024893;28;20458;-74
2024/01/28 03:35:19;;;;;;;19.50;6.60;;;;;;;-1.59;100.00;103029.91;5006977;28;20226;-74
2024/01/28 03:37:46;;;;;;;19.23;6.53;;;;;;;-1.61;100.00;103031.91;5011718;28;20488;-74
2024/01/28 03:40:13;;;;;;;12.77;5.70;;;;;;;-1.63;100.00;103028.66;5011847;28;20197;-75
2024/01/28 03:42:40;;;;;;;24.80;6.77;;;;;;;-1.64;100.00;103021.91;5010012;28;20474;-74
2024/01/28 03:45:09;;;;;;;16.50;6.13;;;;;;;-1.66;100.00;103023.88;5014551;28;20502;-74
2024/01/28 03:47:36;;;;;;;15.63;6.47;;;;;;;-1.67;100.00;103030.06;5013060;28;20220;-74
2024/01/28 03:50:04;;;;;;;15.30;6.43;;;;;;;-1.68;100.00;103028.44;5012637;28;20471;-74
2024/01/28 03:52:31;;;;;;;11.10;6.20;;;;;;;-1.71;100.00;103032.19;5014326;28;20197;-74
2024/01/28 03:54:57;;;;;;;12.10;5.80;;;;;;;-1.74;100.00;103027.41;5015032;28;20963;-76
2024/01/28 03:57:24;;;;;;;19.30;7.10;;;;;;;-1.74;100.00;103027.41;5011537;28;20471;-74
2024/01/28 03:59:51;;;;;;;23.73;6.73;;;;;;;-1.73;100.00;103033.34;5011237;28;20533;-74
2024/01/28 04:02:18;;;;;;;17.53;7.03;;;;;;;-1.73;100.00;103034.16;5011387;28;20458;-74
2024/01/28 04:04:44;;;;;;;16.13;7.17;;;;;;;-1.73;100.00;103029.00;5010850;28;20960;-74
2024/01/28 04:07:12;;;;;;;16.63;7.10;;;;;;;-1.74;100.00;103022.22;5005630;28;20205;-74
2024/01/28 04:09:39;;;;;;;12.77;5.97;;;;;;;-1.75;100.00;103020.63;5011072;28;20201;-74
2024/01/28 04:12:06;;;;;;;19.07;6.33;;;;;;;-1.77;100.00;103024.38;5015415;28;20204;-74
2024/01/28 04:14:33;;;;;;;19.27;6.93;;;;;;;-1.79;100.00;103021.97;5013095;28;20450;-74
2024/01/28 04:16:59;;;;;;;23.17;6.50;;;;;;;-1.78;100.00;103023.56;5005503;28;20866;-74
2024/01/28 04:19:26;;;;;;;22.37;6.93;;;;;;;-1.79;100.00;103021.16;5026593;28;20204;-74
2024/01/28 04:21:52;;;;;;;20.20;6.70;;;;;;;-1.81;100.00;103015.38;5009655;28;20201;-73
2024/01/28 04:24:20;;;;;;;16.57;6.33;;;;;;;-1.80;100.00;103022.97;5009037;28;20467;-74
2024/01/28 04:26:47;;;;;;;20.93;7.70;;;;;;;-1.80;100.00;103019.56;5024423;28;20220;-74
2024/01/28 04:29:13;;;;;;;25.13;7.67;;;;;;;-1.80;100.00;103020.38;5009437;28;20275;-76
2024/01/28 04:31:42;;;;;;;20.73;6.63;;;;;;;-1.81;100.00;103026.53;5009508;28;20193;-74
2024/01/28 04:34:09;;;;;;;22.83;7.37;;;;;;;-1.81;100.00;103021.38;5031838;28;20279;-74
2024/01/28 04:36:36;;;;;;;15.10;6.20;;;;;;;-1.82;100.00;103026.72;5014746;28;20846;-74
2024/01/28 04:39:02;;;;;;;15.70;7.20;;;;;;;-1.83;100.00;103027.72;5009923;28;20204;-74
2024/01/28 04:41:30;;;;;;;24.03;7.17;;;;;;;-1.83;100.00;103027.72;5009400;28;20203;-74
2024/01/28 04:43:57;;;;;;;18.77;6.93;;;;;;;-1.85;100.00;103021.91;5009063;28;20479;-74
2024/01/28 04:46:23;;;;;;;17.50;6.30;;;;;;;-1.87;100.00;103027.25;5011867;28;20504;-74
2024/01/28 04:48:50;;;;;;;18.73;7.10;;;;;;;-1.89;100.00;103016.28;5009381;28;20196;-73
2024/01/28 04:51:17;;;;;;;19.37;7.00;;;;;;;-1.88;100.00;103017.09;5006947;28;20473;-74
2024/01/28 04:53:43;;;;;;;20.10;6.67;;;;;;;-1.89;100.00;103026.66;5012202;28;20527;-74
2024/01/28 04:56:11;;;;;;;11.47;6.43;;;;;;;-1.90;100.00;103022.47;5006940;28;20471;-74
2024/01/28 04:58:39;;;;;;;23.37;7.03;;;;;;;-1.91;100.00;103033.81;5010096;28;20458;-74
2024/01/28 05:01:06;;;;;;;16.20;6.67;;;;;;;-1.88;100.00;103017.09;5025781;28;20838;-74
2024/01/28 05:03:33;;;;;;;13.43;6.80;;;;;;;-1.87;100.00;103016.09;5023693;28;20946;-74
2024/01/28 05:06:00;;;;;;;13.10;6.87;;;;;;;-1.88;100.00;103017.88;5008894;28;20293;-74
2024/01/28 05:08:26;;;;;;;15.50;6.63;;;;;;;-1.90;100.00;103016.47;5012385;28;20647;-74
2024/01/28 05:10:53;;;;;;;18.23;6.90;;;;;;;-1.88;100.00;103017.88;5011722;28;20463;-74
2024/01/28 05:13:20;;;;;;;19.77;7.63;;;;;;;-1.89;100.00;103012.88;5008900;28;20804;-74
2024/01/28 05:15:48;;;;;;;20.07;7.03;;;;;;;-1.85;100.00;103011.53;5002067;28;20476;-74
2024/01/28 05:18:15;;;;;;;17.77;6.37;;;;;;;-1.87;100.00;103026.47;5009676;28;20905;-74
2024/01/28 05:20:42;;;;;;;17.20;6.80;;;;;;;-1.93;100.00;103030.56;5009911;28;20847;-74
2024/01/28 05:23:09;;;;;;;10.83;5.97;;;;;;;-1.97;100.00;103028.56;5010219;28;20841;-74
2024/01/28 05:25:35;;;;;;;11.63;6.97;;;;;;;-1.99;100.00;103033.91;5008176;28;20483;-74
2024/01/28 05:28:02;;;;;;;16.23;6.67;;;;;;;-1.99;100.00;103035.69;5011019;28;20459;-74
2024/01/28 05:30:30;;;;;;;14.63;7.30;;;;;;;-1.99;100.00;103038.25;5011203;28;20445;-73
2024/01/28 05:32:58;;;;;;;14.87;6.70;;;;;;;-1.98;100.00;103035.50;5012375;28;20862;-74
2024/01/28 05:35:25;;;;;;;12.17;6.80;;;;;;;-2.01;100.00;103038.47;5010322;28;20521;-74
2024/01/28 05:37:52;;;;;;;16.60;6.77;;;;;;;-2.02;100.00;103041.25;5013959;28;20944;-74
2024/01/28 05:40:19;;;;;;;17.23;5.93;;;;;;;-2.04;100.00;103038.00;5030447;28;20462;-74
2024/01/28 05:42:46;;;;;;;14.03;6.73;;;;;;;-2.01;100.00;103029.91;5014989;28;20467;-74
2024/01/28 05:45:12;;;;;;;16.90;6.30;;;;;;;-2.02;100.00;103036.06;5014863;28;20486;-74
2024/01/28 05:47:39;;;;;;;22.03;7.17;;;;;;;-2.04;100.00;103028.47;5007276;28;20456;-74
2024/01/28 05:50:08;;;;;;;14.57;5.60;;;;;;;-2.04;100.00;103031.06;5028118;28;20469;-74
2024/01/28 05:52:34;;;;;;;17.60;6.87;;;;;;;-2.08;100.00;103042.75;5011483;28;20995;-74
2024/01/28 05:55:01;;;;;;;13.73;6.50;;;;;;;-2.07;100.00;103041.75;5014650;28;20474;-74
2024/01/28 05:57:28;;;;;;;18.10;7.40;;;;;;;-2.06;100.00;103042.56;5021484;28;20989;-74
2024/01/28 05:59:54;;;;;;;15.97;6.40;;;;;;;-2.10;100.00;103039.56;5014970;28;20459;-74
2024/01/28 06:02:21;;;;;;;20.00;6.30;;;;;;;-2.02;100.00;103034.25;5013467;28;20455;-74
2024/01/28 06:04:47;;;;;;;13.00;6.67;;;;;;;-2.04;100.00;103044.00;5013732;28;20470;-74
2024/01/28 06:07:15;;;;;;;24.63;11.37;;;;;;;-2.05;100.00;103045.00;5014515;28;20462;-74
2024/01/28 06:09:42;;;;;;;27.23;10.47;;;;;;;-2.02;100.00;103051.59;5014971;28;20485;-74
2024/01/28 06:12:09;;;;;;;23.93;7.97;;;;;;;-2.02;100.00;103047.19;5013010;28;20458;-74
2024/01/28 06:14:35;;;;;;;20.33;8.40;;;;;;;-2.01;100.00;103042.84;5013127;28;21101;-74
2024/01/28 06:17:02;;;;;;;27.20;10.40;;;;;;;-2.04;100.00;103050.94;5014383;28;20478;-74
2024/01/28 06:19:29;;;;;;;24.23;8.60;;;;;;;-2.06;100.00;103055.53;5006665;28;20451;-74
2024/01/28 06:22:00;;;;;;;22.37;8.13;;;;;;;-2.08;100.00;103047.16;5012968;28;20462;-74
2024/01/28 06:24:28;;;;;;;18.93;7.40;;;;;;;-2.06;100.00;103048.56;5011570;28;20471;-74
2024/01/28 06:26:55;;;;;;;25.33;9.43;;;;;;;-2.07;100.00;103057.28;5009904;28;20484;-74
2024/01/28 06:29:21;;;;;;;26.07;8.13;;;;;;;-2.10;100.00;103055.09;5010150;28;20454;-74
2024/01/28 06:31:50;;;;;;;27.20;9.30;;;;;;;-2.06;100.00;103052.94;5011259;28;20460;-74
2024/01/28 06:34:16;;;;;;;32.37;8.73;;;;;;;-2.15;100.00;103054.00;5014394;28;20447;-74
2024/01/28 06:36:43;;;;;;;19.30;8.23;;;;;;;-2.19;100.00;103055.38;5012434;28;20485;-74
2024/01/28 06:39:09;;;;;;;21.17;9.20;;;;;;;-2.22;100.00;103059.13;5010521;28;20458;-74
2024/01/28 06:41:38;;;;;;;23.00;7.40;;;;;;;-2.21;100.00;103062.50;5017612;28;20974;-74
2024/01/28 06:44:05;;;;;;;22.23;7.83;;;;;;;-2.22;100.00;103063.50;5012642;28;20557;-74
2024/01/28 06:46:31;;;;;;;20.53;7.20;;;;;;;-2.21;100.00;103065.09;5011825;28;20484;-74
2024/01/28 06:48:58;;;;;;;19.70;7.10;;;;;;;-2.24;100.00;103065.47;5010092;28;20462;-74
2024/01/28 06:51:25;;;;;;;18.60;7.40;;;;;;;-2.26;100.00;103060.47;5011957;28;20462;-74
2024/01/28 06:53:52;;;;;;;12.63;7.47;;;;;;;-2.28;100.00;103066.81;5010260;28;20473;-74
2024/01/28 06:56:18;;;;;;;20.07;6.80;;;;;;;-2.28;100.00;103065.00;5021335;28;20475;-74
2024/01/28 06:58:47;;;;;;;15.80;6.27;;;;;;;-2.29;100.00;103070.38;5011676;28;20475;-74
2024/01/28 07:01:14;;;;;;;15.13;6.80;;;;;;;-2.31;100.00;103075.72;5008120;28;20456;-74
2024/01/28 07:03:40;;;;;;;16.47;7.20;;;;;;;-2.29;100.00;103075.56;5012198;28;21103;-74
2024/01/28 07:06:07;;;;;;;18.07;7.00;;;;;;;-2.29;100.00;103067.81;5010693;28;20480;-74
2024/01/28 07:08:34;;;;;;;14.73;7.00;;;;;;;-2.29;100.00;103072.97;5011962;28;20462;-74
2024/01/28 07:11:01;;;;;;;21.20;6.83;;;;;;;-2.25;100.00;103069.03;5012337;28;20443;-74
2024/01/28 07:13:27;;;;;;;17.17;7.67;;;;;;;-2.23;100.00;103074.84;5012518;28;20459;-74
2024/01/28 07:15:55;;;;;;;21.73;8.33;;;;;;;-2.23;100.00;103069.66;5005912;28;20473;-74
2024/01/28 07:18:22;;;;;;;23.03;7.70;;;;;;;-2.25;100.00;103069.03;5010902;28;20462;-74
2024/01/28 07:20:48;;;;;;;14.83;7.20;;;;;;;-2.25;100.00;103067.25;5013485;28;20865;-73
2024/01/28 07:23:15;;;;;;;18.73;7.47;;;;;;;-2.21;100.00;103065.91;5012268;28;20461;-74
2024/01/28 07:25:41;;;;;;;16.33;7.60;;;;;;;-2.22;100.00;103063.50;5013744;28;20487;-74
2024/01/28 07:28:08;;;;;;;19.60;7.00;;;;;;;-2.24;100.00;103055.91;5010693;28;20880;-74
2024/01/28 07:30:34;;;;;;;23.53;9.03;;;;;;;-2.21;100.00;103052.16;5009923;28;20463;-74
2024/01/28 07:33:07;;;;;;;16.40;8.63;;;;;;;-2.19;100.00;103052.81;5014059;28;20454;-74
2024/01/28 07:35:34;;;;;;;21.87;8.47;;;;;;;-2.20;100.00;103048.56;5007965;28;20474;-74
2024/01/28 07:38:01;;;;;;;19.13;7.97;;;;;;;-2.18;100.00;103052.59;5010952;28;20469;-74
2024/01/28 07:40:27;;;;;;;21.63;8.03;;;;;;;-2.11;100.00;103047.50;5014740;28;20464;-74
2024/01/28 07:42:55;;;;;;;16.33;7.63;;;;;;;-2.08;100.00;103058.28;5012441;28;20496;-74
2024/01/28 07:45:21;;;;;;;21.17;8.47;;;;;;;-2.09;100.00;103059.28;5012087;28;20286;-74
2024/01/28 07:47:48;;;;;;;18.80;7.97;;;;;;;-2.11;100.00;103048.31;5011114;28;20487;-73
2024/01/28 07:50:16;;;;;;;19.57;7.87;;;;;;;-2.07;100.00;103066.88;5009737;28;20530;-74
2024/01/28 07:52:43;;;;;;;17.77;8.30;;;;;;;-2.02;100.00;103059.34;5025008;28;20825;-74
2024/01/28 07:55:11;;;;;;;22.47;9.10;;;;;;;-1.97;100.00;103060.41;5008882;28;20725;-74
2024/01/28 07:57:37;;;;;;;15.33;7.40;;;;;;;-1.94;100.00;103059.22;5011348;28;20814;-74
2024/01/28 08:00:05;;;;;;;21.77;7.70;;;;;;;-1.89;100.00;103067.25;5013735;28;20234;-74
2024/01/28 08:02:38;;;;;;;24.10;7.63;;;;;;;-1.86;100.00;103069.50;5009533;28;20475;-74
2024/01/28 08:05:05;;;;;;;22.93;8.27;;;;;;;-1.82;100.00;103074.09;5011339;28;20957;-74
2024/01/28 08:07:33;;;;;;;19.23;8.30;;;;;;;-1.76;100.00;103068.19;5005607;28;20456;-74
2024/01/28 08:10:01;;;;;;;23.87;8.60;;;;;;;-1.72;100.00;103063.47;5029559;28;20208;-74
2024/01/28 08:12:28;;;;;;;25.73;7.80;;;;;;;-1.62;100.00;103069.94;5008430;28;20283;-74
2024/01/28 08:14:54;;;;;;;20.97;7.90;;;;;;;-1.55;100.00;103076.00;5009328;28;20448;-74
2024/01/28 08:17:21;;;;;;;21.47;8.70;;;;;;;-1.48;100.00;103072.47;5008746;28;20385;-74
2024/01/28 08:19:47;;;;;;;15.93;7.90;;;;;;;-1.40;100.00;103074.13;5009085;28;20204;-74
2024/01/28 08:22:14;;;;;;;17.67;8.53;;;;;;;-1.34;100.00;103072.59;5024004;28;20216;-73
2024/01/28 08:24:42;;;;;;;20.67;7.87;;;;;;;-1.26;100.00;103083.63;5008811;28;20207;-74
2024/01/28 08:27:08;;;;;;;25.83;8.23;;;;;;;-1.19;100.00;103075.91;5004817;28;20201;-74
2024/01/28 08:29:37;;;;;;;28.40;8.67;;;;;;;-1.11;100.00;103073.97;5010785;28;20664;-74
2024/01/28 08:32:04;;;;;;;23.77;8.37;;;;;;;-1.03;100.00;103076.44;5008645;28;20209;-74
2024/01/28 08:34:30;;;;;;;25.37;9.07;;;;;;;-0.94;100.00;103090.06;5005040;28;20211;-74
2024/01/28 08:36:57;;;;;;;23.37;8.17;;;;;;;-0.87;100.00;103083.94;5007664;28;20694;-74
2024/01/28 08:39:23;;;;;;;24.93;8.63;;;;;;;-0.78;100.00;103090.56;5007068;28;20568;-74
2024/01/28 08:41:51;;;;;;;22.30;7.63;;;;;;;-0.71;100.00;103087.03;5003776;28;20224;-74
2024/01/28 08:44:18;;;;;;;22.10;8.20;;;;;;;-0.61;100.00;103086.72;5011609;28;20211;-74
2024/01/28 08:46:46;;;;;;;20.50;8.37;;;;;;;-0.53;100.00;103083.16;5015203;28;20255;-74
2024/01/28 08:49:12;;;;;;;26.87;8.53;;;;;;;-0.47;100.00;103073.59;5021774;28;20223;-74
2024/01/28 08:51:39;;;;;;;18.83;7.97;;;;;;;-0.41;100.00;103070.25;5021502;28;20561;-74
2024/01/28 08:54:05;;;;;;;22.50;9.90;;;;;;;-0.32;100.00;103077.88;5020700;28;20196;-73
2024/01/28 08:56:32;;;;;;;36.67;11.43;;;;;;;-0.26;100.00;103075.28;5021015;28;20220;-74
2024/01/28 08:59:00;;;;;;;29.63;13.77;;;;;;;-0.17;100.00;103076.72;5039966;28;20749;-74
2024/01/28 09:01:27;;;;;;;30.10;11.37;;;;;;;-0.10;100.00;103069.78;5022101;28;20369;-73
2024/01/28 09:03:53;;;;;;;22.40;9.17;;;;;;;-0.05;100.00;103070.78;5015515;28;20212;-74
2024/01/28 09:06:20;;;;;;;23.43;8.87;;;;;;;0.02;100.00;103068.22;5015867;28;20228;-74
2024/01/28 09:08:46;;;;;;;27.30;8.47;;;;;;;0.07;100.00;103073.63;5021381;28;20594;-74
2024/01/28 09:11:13;;;;;;;25.80;8.60;;;;;;;0.16;100.00;103080.25;5024290;28;20211;-73
2024/01/28 09:13:40;;;;;;;27.50;12.17;;;;;;;0.26;100.00;103078.09;5031303;28;20208;-74
2024/01/28 09:16:08;;;;;;;36.33;11.83;;;;;;;0.34;100.00;103083.09;5034597;28;20203;-73
2024/01/28 09:18:34;;;;;;;30.73;10.23;;;;;;;0.40;100.00;103087.50;5039499;28;20189;-74
2024/01/28 09:21:01;;;;;;;27.40;9.67;;;;;;;0.49;100.00;103089.72;5033928;28;20204;-74
2024/01/28 09:23:27;;;;;;;29.27;9.80;;;;;;;0.55;100.00;103088.13;5036087;28;20207;-73
2024/01/28 09:25:54;;;;;;;27.10;9.70;;;;;;;0.60;100.00;103089.16;5030344;28;20774;-72
2024/01/28 09:28:21;;;;;;;21.40;9.80;;;;;;;0.68;100.00;103096.72;5031297;28;20631;-74
2024/01/28 09:30:47;;;;;;;24.83;10.17;;;;;;;0.75;100.00;103091.53;5019047;28;20238;-74
2024/01/28 09:33:15;;;;;;;31.93;10.17;;;;;;;0.82;100.00;103093.16;5009150;28;22090;-74
2024/01/28 09:35:43;;;;;;;26.60;8.93;;;;;;;0.90;100.00;103089.56;5016326;28;20213;-73
2024/01/28 09:38:10;;;;;;;22.50;9.27;;;;;;;0.96;100.00;103089.56;5012088;28;20199;-73
2024/01/28 09:40:36;;;;;;;34.87;10.67;;;;;;;1.02;100.00;103085.34;5010713;28;20216;-73
2024/01/28 09:43:10;;;;;;;24.90;10.00;;;;;;;1.10;100.00;103087.75;5042567;28;20211;-73
2024/01/28 09:45:37;;;;;;;26.70;10.40;;;;;;;1.17;100.00;103085.94;5010688;28;20727;-73
2024/01/28 09:48:04;;;;;;;25.50;10.17;;;;;;;1.26;100.00;103082.13;5022770;28;20228;-73
2024/01/28 09:50:32;;;;;;;24.93;10.47;;;;;;;1.32;100.00;103095.13;5011512;28;20200;-73
2024/01/28 09:52:58;;;;;;;30.10;11.37;;;;;;;1.39;100.00;103095.91;5026539;28;20205;-73
2024/01/28 09:55:25;;;;;;;33.27;10.57;;;;;;;1.50;100.00;103082.25;5004655;28;20217;-73
2024/01/28 09:57:52;;;;;;;34.10;10.03;;;;;;;1.56;100.00;103091.84;5008546;28;20640;-72
2024/01/28 10:00:20;;;;;;;27.90;9.83;;;;;;;1.62;100.00;103080.59;5006923;28;20247;-72
2024/01/28 10:02:47;;;;;;;29.10;10.40;;;;;;;1.72;100.00;103078.38;5026386;28;20208;-72
2024/01/28 10:05:14;;;;;;;30.20;10.73;;;;;;;1.82;100.00;103064.94;5005252;28;20240;-72
2024/01/28 10:07:43;;;;;;;26.00;9.17;;;;;;;1.92;100.00;103060.84;5026622;28;20306;-72
2024/01/28 10:10:12;;;;;;;37.13;11.40;;;;;;;2.05;100.00;103060.00;5007251;28;20196;-72
2024/01/28 10:12:38;;;;;;;26.13;9.53;;;;;;;2.13;100.00;103062.38;5007999;28;20693;-71
2024/01/28 10:15:14;;;;;;;27.60;10.63;;;;;;;2.21;100.00;103059.50;5005010;28;20228;-73
2024/01/28 10:17:46;;;;;;;23.63;9.50;;;;;;;2.33;100.00;103052.63;5005453;28;20193;-73
2024/01/28 10:20:14;;;;;;;31.13;9.27;;;;;;;2.38;100.00;103050.19;5004795;28;20726;-72
2024/01/28 10:22:40;;;;;;;27.10;9.07;;;;;;;2.47;100.00;103047.09;5009091;28;20201;-72
2024/01/28 10:25:11;;;;;;;29.17;8.97;;;;;;;2.54;100.00;103039.25;5006063;28;20208;-73
2024/01/28 10:27:38;;;;;;;24.90;8.93;;;;;;;2.60;100.00;103047.00;5010618;28;20204;-73
2024/01/28 10:30:06;;;;;;;33.73;10.87;;;;;;;2.68;100.00;103049.34;5004168;28;20211;-71
2024/01/28 10:32:33;;;;;;;23.83;9.07;;;;;;;2.74;100.00;103051.09;5010605;28;20657;-73
2024/01/28 10:34:59;;;;;;;27.17;8.17;;;;;;;2.82;100.00;103039.59;5008015;28;20197;-73
2024/01/28 10:37:28;;;;;;;36.30;9.93;;;;;;;2.90;100.00;103037.50;5008528;28;20228;-73
2024/01/28 10:39:57;;;;;;;25.13;9.73;;;;;;;2.96;100.00;103028.03;5004545;28;20193;-73
2024/01/28 10:42:27;;;;;;;26.30;9.33;;;;;;;3.05;100.00;103037.97;5003918;28;20211;-72
2024/01/28 10:44:56;;;;;;;22.50;8.50;;;;;;;3.12;100.00;103035.31;5004588;28;20258;-73
2024/01/28 10:47:26;;;;;;;21.83;9.63;;;;;;;3.17;100.00;103032.84;5003276;28;20309;-72
2024/01/28 10:50:00;;;;;;;28.00;8.80;;;;;;;3.22;100.00;103025.94;5008223;28;20192;-73
2024/01/28 10:52:27;;;;;;;36.27;10.00;;;;;;;3.28;100.00;103016.47;5004229;28;20209;-73
2024/01/28 10:54:54;;;;;;;27.17;9.37;;;;;;;3.36;100.00;103009.13;5006332;28;20563;-73
2024/01/28 10:57:21;;;;;;;27.67;8.70;;;;;;;3.43;100.00;103009.06;5004753;28;20204;-74
2024/01/28 10:59:51;;;;;;;29.33;9.40;;;;;;;3.48;100.00;103017.03;5008235;28;20207;-73
2024/01/28 11:02:19;;;;;;;21.30;8.73;;;;;;;3.55;100.00;103015.94;5008027;28;20768;-73
2024/01/28 11:04:47;;;;;;;28.87;8.57;;;;;;;3.61;100.00;103011.63;5003842;28;21506;-73
2024/01/28 11:07:16;;;;;;;24.47;8.33;;;;;;;3.67;100.00;103005.53;5002055;28;20726;-72
2024/01/28 11:09:42;;;;;;;26.53;8.33;;;;;;;3.73;100.00;103004.66;5007475;28;20201;-73